Time;durP1;ratioP1;P1;durP2;ratioP2;P2;SDS_P1;SDS_P2;PMS_P1;PMS_P2;Temp;Humidity;BMP_temperature;BMP_pressure;BME280_temperature;BME280_humidity;BME280_pressure;Samples;Min_cycle;Max_cycle;Signal;HPM_P1;HPM_P2
2023/07/06 00:00:14;;;;;;;;;;;;;;;28.48;53.21;100921.03;5078183;28;20010;-81
2023/07/06 00:02:39;;;;;;;;;;;;;;;28.48;53.10;100928.22;5089303;28;20404;-81
2023/07/06 00:05:05;;;;;;;;;;;;;;;28.48;52.85;100928.22;5072772;28;19942;-81
2023/07/06 00:07:31;;;;;;;;;;;;;;;28.46;53.19;100930.91;5074162;28;19921;-80
2023/07/06 00:09:56;;;;;;;;;;;;;;;28.46;53.06;100938.97;5052987;28;20290;-81
2023/07/06 00:12:22;;;;;;;;;;;;;;;28.46;53.28;100941.66;5074599;28;20384;-80
2023/07/06 00:14:48;;;;;;;;;;;;;;;28.41;53.45;100938.19;5080166;28;19920;-80
2023/07/06 00:17:14;;;;;;;;;;;;;;;28.42;53.27;100939.94;5074429;28;19931;-81
2023/07/06 00:19:40;;;;;;;;;;;;;;;28.42;53.32;100935.44;5087114;28;19977;-80
2023/07/06 00:22:06;;;;;;;;;;;;;;;28.42;53.34;100934.56;5088149;28;19959;-80
2023/07/06 00:24:31;;;;;;;;;;;;;;;28.39;53.51;100919.41;5070936;28;20373;-80
2023/07/06 00:26:57;;;;;;;;;;;;;;;28.39;53.42;100916.72;5072183;28;19912;-80
2023/07/06 00:29:22;;;;;;;;;;;;;;;28.40;53.79;100907.72;5072943;28;20437;-80
2023/07/06 00:31:52;;;;;;;;;;;;;;;28.40;53.66;100906.84;5057061;28;20432;-80
2023/07/06 00:34:18;;;;;;;;;;;;;;;28.39;53.59;100919.41;5091282;28;19916;-81
2023/07/06 00:36:43;;;;;;;;;;;;;;;28.38;53.66;100909.56;5080775;28;19924;-80
2023/07/06 00:39:12;;;;;;;;;;;;;;;28.38;53.74;100916.72;5079728;28;20015;-80
2023/07/06 00:41:38;;;;;;;;;;;;;;;28.36;53.86;100913.19;5083334;28;19920;-81
2023/07/06 00:44:04;;;;;;;;;;;;;;;28.36;53.78;100921.25;5081444;28;20102;-79
2023/07/06 00:46:36;;;;;;;;;;;;;;;28.37;53.58;100913.16;5080229;28;20018;-81
2023/07/06 00:49:01;;;;;;;;;;;;;;;28.37;53.64;100923.91;5092816;28;19947;-81
2023/07/06 00:51:27;;;;;;;;;;;;;;;28.36;53.88;100919.47;5089205;28;20438;-81
2023/07/06 00:53:57;;;;;;;;;;;;;;;28.36;53.82;100929.31;5082142;28;19952;-80
2023/07/06 00:56:23;;;;;;;;;;;;;;;28.34;53.77;100920.38;5101000;28;20337;-81
2023/07/06 00:58:49;;;;;;;;;;;;;;;28.32;53.92;100920.44;5093129;28;19921;-81
2023/07/06 01:01:15;;;;;;;;;;;;;;;28.34;54.08;100915.00;5091933;28;19927;-80
2023/07/06 01:03:46;;;;;;;;;;;;;;;28.31;53.64;100910.59;5074988;28;20573;-81
2023/07/06 01:06:13;;;;;;;;;;;;;;;28.30;54.00;100908.81;5079928;28;19977;-80
2023/07/06 01:08:39;;;;;;;;;;;;;;;28.30;53.90;100910.59;5092370;28;20447;-81
2023/07/06 01:11:04;;;;;;;;;;;;;;;28.29;53.95;100908.84;5074402;28;20010;-81
2023/07/06 01:13:30;;;;;;;;;;;;;;;28.29;53.60;100909.72;5085870;28;20313;-81
2023/07/06 01:15:57;;;;;;;;;;;;;;;28.29;53.67;100911.53;5082366;28;20007;-81
2023/07/06 01:18:35;;;;;;;;;;;;;;;28.28;53.86;100920.47;5094719;28;20366;-81
2023/07/06 01:21:18;;;;;;;;;;;;;;;28.27;54.19;100910.66;5077312;28;19967;-81
2023/07/06 01:23:58;;;;;;;;;;;;;;;28.25;53.89;100921.44;5056473;28;19924;-81
2023/07/06 01:26:42;;;;;;;;;;;;;;;28.25;53.92;100915.19;5091230;28;20003;-80
2023/07/06 01:29:20;;;;;;;;;;;;;;;28.25;53.96;100910.69;5092901;28;19970;-80
2023/07/06 01:32:02;;;;;;;;;;;;;;;28.25;53.95;100915.19;5089601;28;19928;-80
2023/07/06 01:34:43;;;;;;;;;;;;;;;28.23;53.81;100910.69;5089735;28;19923;-81
2023/07/06 01:37:16;;;;;;;;;;;;;;;28.22;53.72;100906.25;5060500;28;19928;-80
2023/07/06 01:39:42;;;;;;;;;;;;;;;28.21;53.78;100907.19;5080488;28;19925;-80
2023/07/06 01:42:07;;;;;;;;;;;;;;;28.19;53.77;100911.69;5083982;28;19927;-80
2023/07/06 01:44:33;;;;;;;;;;;;;;;28.20;54.04;100916.13;5081076;28;20033;-80
2023/07/06 01:46:58;;;;;;;;;;;;;;;28.19;53.81;100917.06;5059115;28;19920;-81
2023/07/06 01:49:23;;;;;;;;;;;;;;;28.18;54.07;100917.97;5089230;28;19952;-80
2023/07/06 01:51:49;;;;;;;;;;;;;;;28.18;53.96;100926.03;5089345;28;19966;-80
2023/07/06 01:54:16;;;;;;;;;;;;;;;28.17;53.66;100926.03;5073473;28;20418;-81
2023/07/06 01:56:47;;;;;;;;;;;;;;;28.17;53.64;100926.94;5092152;28;20313;-81
2023/07/06 01:59:13;;;;;;;;;;;;;;;28.17;53.73;100923.34;5061285;28;20011;-80
2023/07/06 02:01:40;;;;;;;;;;;;;;;28.15;53.89;100928.78;5092454;28;20058;-80
2023/07/06 02:04:06;;;;;;;;;;;;;;;28.16;53.53;100929.66;5087019;28;19939;-80
2023/07/06 02:06:33;;;;;;;;;;;;;;;28.14;53.81;100929.66;5102344;27;19920;-80
2023/07/06 02:08:58;;;;;;;;;;;;;;;28.14;53.72;100934.16;5060353;28;19923;-80
2023/07/06 02:11:24;;;;;;;;;;;;;;;28.13;53.74;100933.28;5079593;28;19938;-81
2023/07/06 02:13:50;;;;;;;;;;;;;;;28.13;53.64;100929.69;5069221;28;19923;-81
2023/07/06 02:16:15;;;;;;;;;;;;;;;28.14;53.71;100940.41;5055091;28;20385;-81
2023/07/06 02:18:41;;;;;;;;;;;;;;;28.14;53.64;100935.03;5073506;28;20582;-81
2023/07/06 02:21:06;;;;;;;;;;;;;;;28.13;53.67;100938.66;5077822;28;19921;-81
2023/07/06 02:23:32;;;;;;;;;;;;;;;28.12;53.76;100928.81;5078740;28;20399;-81
2023/07/06 02:25:58;;;;;;;;;;;;;;;28.11;53.69;100937.78;5085045;28;19921;-81
2023/07/06 02:28:23;;;;;;;;;;;;;;;28.10;53.81;100940.47;5094006;28;20373;-81
2023/07/06 02:30:49;;;;;;;;;;;;;;;28.07;53.82;100946.78;5077325;28;19926;-82
2023/07/06 02:33:18;;;;;;;;;;;;;;;28.10;53.80;100952.09;5087725;28;19917;-81
2023/07/06 02:35:46;;;;;;;;;;;;;;;28.10;53.69;100956.59;5083207;28;19928;-81
2023/07/06 02:38:16;;;;;;;;;;;;;;;28.07;53.95;100952.16;5086661;28;20023;-81
2023/07/06 02:40:42;;;;;;;;;;;;;;;28.06;53.55;100950.38;5087309;28;20531;-81
2023/07/06 02:43:07;;;;;;;;;;;;;;;28.08;53.86;100959.28;5054680;28;19924;-81
2023/07/06 02:45:33;;;;;;;;;;;;;;;28.08;53.74;100950.34;5082969;28;20407;-81
2023/07/06 02:47:58;;;;;;;;;;;;;;;28.05;53.76;100948.63;5087631;28;20301;-81
2023/07/06 02:50:24;;;;;;;;;;;;;;;28.07;53.59;100949.47;5084353;28;20351;-80
2023/07/06 02:52:49;;;;;;;;;;;;;;;28.06;53.72;100945.00;5079744;28;19916;-81
2023/07/06 02:55:16;;;;;;;;;;;;;;;28.04;53.66;100941.44;5077406;28;19921;-81
2023/07/06 02:57:41;;;;;;;;;;;;;;;28.04;53.86;100938.78;5074029;28;19920;-80
2023/07/06 03:00:10;;;;;;;;;;;;;;;28.04;53.51;100946.81;5063030;28;19925;-81
2023/07/06 03:02:36;;;;;;;;;;;;;;;28.04;53.57;100949.50;5086264;28;19920;-81
2023/07/06 03:05:04;;;;;;;;;;;;;;;28.02;53.57;100945.97;5077088;28;19935;-81
2023/07/06 03:07:29;;;;;;;;;;;;;;;28.00;53.80;100947.78;5084173;28;20415;-81
2023/07/06 03:09:57;;;;;;;;;;;;;;;28.00;53.93;100945.09;5081589;28;19920;-81
2023/07/06 03:12:23;;;;;;;;;;;;;;;28.00;53.66;100939.72;5100762;28;19970;-81
2023/07/06 03:14:49;;;;;;;;;;;;;;;27.99;53.96;100937.97;5075207;28;20066;-80
2023/07/06 03:17:14;;;;;;;;;;;;;;;27.99;53.82;100932.59;5078634;28;20002;-80
2023/07/06 03:19:41;;;;;;;;;;;;;;;27.98;53.82;100947.81;5074325;28;19920;-80
2023/07/06 03:22:07;;;;;;;;;;;;;;;27.97;53.57;100932.63;5071690;28;19920;-81
2023/07/06 03:24:33;;;;;;;;;;;;;;;27.97;53.70;100934.41;5097032;28;19931;-81
2023/07/06 03:26:59;;;;;;;;;;;;;;;27.98;53.61;100941.53;5069458;28;20631;-80
2023/07/06 03:29:25;;;;;;;;;;;;;;;27.96;53.64;100941.59;5075978;28;19975;-80
2023/07/06 03:31:50;;;;;;;;;;;;;;;27.95;53.57;100937.13;5087435;28;20394;-81
2023/07/06 03:34:16;;;;;;;;;;;;;;;27.94;53.66;100938.03;5088991;28;19947;-80
2023/07/06 03:36:41;;;;;;;;;;;;;;;27.95;53.49;100938.91;5083105;28;19924;-80
2023/07/06 03:39:11;;;;;;;;;;;;;;;27.94;53.65;100939.81;5078781;28;19934;-80
2023/07/06 03:41:38;;;;;;;;;;;;;;;27.91;53.89;100948.81;5071414;28;19993;-80
2023/07/06 03:44:04;;;;;;;;;;;;;;;27.93;53.65;100940.75;5080642;28;20014;-80
2023/07/06 03:46:34;;;;;;;;;;;;;;;27.92;53.60;100941.63;5080034;28;20348;-80
2023/07/06 03:49:09;;;;;;;;;;;;;;;27.92;53.49;100933.59;5085202;28;19927;-81
2023/07/06 03:51:38;;;;;;;;;;;;;;;27.89;53.79;100929.16;5078111;28;19962;-83
2023/07/06 03:54:06;;;;;;;;;;;;;;;27.92;53.93;100936.25;5084761;28;19928;-81
2023/07/06 03:56:32;;;;;;;;;;;;;;;27.89;53.99;100931.84;5069183;28;20412;-82
2023/07/06 03:58:57;;;;;;;;;;;;;;;27.87;53.99;100928.28;5090712;28;19924;-82
2023/07/06 04:01:24;;;;;;;;;;;;;;;27.87;53.90;100925.59;5060628;28;19988;-82
2023/07/06 04:03:50;;;;;;;;;;;;;;;27.87;53.71;100930.09;5082550;28;20454;-81
2023/07/06 04:06:15;;;;;;;;;;;;;;;27.86;53.61;100923.84;5075267;28;19920;-81
2023/07/06 04:08:41;;;;;;;;;;;;;;;27.86;53.92;100925.66;5085191;28;19999;-82
2023/07/06 04:11:07;;;;;;;;;;;;;;;27.86;53.67;100929.22;5074159;28;19920;-82
2023/07/06 04:13:32;;;;;;;;;;;;;;;27.84;53.52;100932.81;5079536;28;19988;-82
2023/07/06 04:15:57;;;;;;;;;;;;;;;27.84;53.76;100932.81;5075444;28;19928;-81
2023/07/06 04:18:23;;;;;;;;;;;;;;;27.83;53.75;100934.56;5098200;28;19931;-81
2023/07/06 04:20:49;;;;;;;;;;;;;;;27.81;53.61;100937.31;5075130;28;19988;-81
2023/07/06 04:23:15;;;;;;;;;;;;;;;27.82;53.73;100938.19;5094331;28;19928;-82
2023/07/06 04:25:40;;;;;;;;;;;;;;;27.81;53.70;100939.09;5081937;28;20592;-84
2023/07/06 04:28:07;;;;;;;;;;;;;;;27.80;53.93;100930.16;5055332;28;19916;-82
2023/07/06 04:30:33;;;;;;;;;;;;;;;27.81;53.57;100933.72;5091325;28;19931;-81
2023/07/06 04:32:59;;;;;;;;;;;;;;;27.79;53.56;100936.44;5093266;28;19921;-81
2023/07/06 04:35:26;;;;;;;;;;;;;;;27.78;53.59;100939.13;5075915;28;19924;-81
2023/07/06 04:37:52;;;;;;;;;;;;;;;27.79;53.86;100944.50;5095124;28;19927;-82
2023/07/06 04:40:18;;;;;;;;;;;;;;;27.79;53.45;100952.53;5072277;28;19920;-81
2023/07/06 04:42:46;;;;;;;;;;;;;;;27.78;53.51;100949.88;5072186;28;19927;-80
2023/07/06 04:45:12;;;;;;;;;;;;;;;27.79;53.50;100951.63;5095758;28;19920;-81
2023/07/06 04:47:39;;;;;;;;;;;;;;;27.77;53.67;100953.44;5078820;28;19920;-81
2023/07/06 04:50:04;;;;;;;;;;;;;;;27.76;53.61;100955.25;5093043;28;19916;-81
2023/07/06 04:52:31;;;;;;;;;;;;;;;27.78;53.69;100952.56;5078855;28;20455;-82
2023/07/06 04:54:58;;;;;;;;;;;;;;;27.77;53.55;100957.03;5073498;28;19928;-82
2023/07/06 04:57:23;;;;;;;;;;;;;;;27.78;53.83;100961.50;5082432;28;20350;-82
2023/07/06 04:59:49;;;;;;;;;;;;;;;27.77;53.58;100964.19;5082718;28;19920;-82
2023/07/06 05:02:15;;;;;;;;;;;;;;;27.74;53.69;100965.13;5083546;28;19924;-83
2023/07/06 05:04:40;;;;;;;;;;;;;;;27.73;53.63;100973.19;5080022;28;19963;-82
2023/07/06 05:07:11;;;;;;;;;;;;;;;27.75;53.72;100971.38;5068543;28;19928;-81
2023/07/06 05:09:38;;;;;;;;;;;;;;;27.77;53.61;100972.22;5083129;28;19924;-82
2023/07/06 05:12:03;;;;;;;;;;;;;;;27.74;53.32;100975.84;5077011;28;19924;-81
2023/07/06 05:14:29;;;;;;;;;;;;;;;27.73;53.78;100982.16;5086658;28;19920;-79
2023/07/06 05:16:54;;;;;;;;;;;;;;;27.72;53.27;100977.66;5079320;28;19920;-82
2023/07/06 05:19:23;;;;;;;;;;;;;;;27.70;53.57;100973.25;5073218;28;20469;-82
2023/07/06 05:21:48;;;;;;;;;;;;;;;27.68;53.63;100975.06;5076275;28;20446;-80
2023/07/06 05:24:14;;;;;;;;;;;;;;;27.61;53.33;100980.50;5084957;28;19927;-82
2023/07/06 05:26:39;;;;;;;;;;;;;;;27.63;53.57;100977.81;5078049;28;19920;-80
2023/07/06 05:29:05;;;;;;;;;;;;;;;27.67;53.32;100974.19;5061665;28;19963;-81
2023/07/06 05:31:31;;;;;;;;;;;;;;;27.62;53.30;100976.00;5077513;28;20312;-80
2023/07/06 05:33:56;;;;;;;;;;;;;;;27.61;53.35;100972.44;5099116;28;19998;-81
2023/07/06 05:36:22;;;;;;;;;;;;;;;27.63;53.34;100971.56;5074449;28;20082;-81
2023/07/06 05:38:47;;;;;;;;;;;;;;;27.60;53.21;100978.75;5073673;28;20381;-82
2023/07/06 05:41:12;;;;;;;;;;;;;;;27.61;53.38;100972.44;5081475;28;20359;-82
2023/07/06 05:43:39;;;;;;;;;;;;;;;27.61;53.61;100975.13;5066131;28;20499;-80
2023/07/06 05:46:04;;;;;;;;;;;;;;;27.67;53.08;100973.28;5084167;28;20018;-80
2023/07/06 05:48:30;;;;;;;;;;;;;;;27.67;53.03;100970.63;5083822;28;20397;-81
2023/07/06 05:50:56;;;;;;;;;;;;;;;27.65;53.36;100978.69;5083719;28;19920;-80
2023/07/06 05:53:22;;;;;;;;;;;;;;;27.68;52.99;100973.25;5055955;28;19927;-80
2023/07/06 05:55:48;;;;;;;;;;;;;;;27.69;53.31;100972.38;5072184;28;19916;-80
2023/07/06 05:58:16;;;;;;;;;;;;;;;27.65;53.23;100976.00;5073713;28;19974;-80
2023/07/06 06:00:41;;;;;;;;;;;;;;;27.63;52.93;100976.94;5077386;28;20003;-80
2023/07/06 06:03:07;;;;;;;;;;;;;;;27.66;53.42;100972.38;5076082;28;20445;-80
2023/07/06 06:05:33;;;;;;;;;;;;;;;27.66;53.15;100966.13;5072749;28;19924;-79
2023/07/06 06:07:59;;;;;;;;;;;;;;;27.69;53.12;100971.47;5073366;28;20381;-80
2023/07/06 06:10:24;;;;;;;;;;;;;;;27.65;53.16;100972.44;5078995;28;19916;-80
2023/07/06 06:12:49;;;;;;;;;;;;;;;27.70;53.01;100966.06;5076078;28;19921;-80
2023/07/06 06:15:15;;;;;;;;;;;;;;;27.67;53.05;100965.25;5074543;28;20373;-80
2023/07/06 06:17:40;;;;;;;;;;;;;;;27.70;53.08;100975.91;5072976;28;20353;-79
2023/07/06 06:20:08;;;;;;;;;;;;;;;27.65;53.02;100965.25;5075315;28;21354;-79
2023/07/06 06:22:34;;;;;;;;;;;;;;;27.66;53.15;100963.44;5090076;28;20011;-80
2023/07/06 06:25:00;;;;;;;;;;;;;;;27.67;52.63;100960.75;5085975;28;20011;-79
2023/07/06 06:27:25;;;;;;;;;;;;;;;27.66;52.98;100958.09;5084541;28;20372;-80
2023/07/06 06:29:51;;;;;;;;;;;;;;;27.66;53.11;100955.41;5077786;28;19969;-81
2023/07/06 06:32:16;;;;;;;;;;;;;;;27.65;52.99;100949.16;5077074;28;20472;-80
2023/07/06 06:34:42;;;;;;;;;;;;;;;27.67;52.88;100952.72;5058144;28;20007;-80
2023/07/06 06:37:09;;;;;;;;;;;;;;;27.65;52.71;100949.16;5074896;28;19951;-82
2023/07/06 06:39:34;;;;;;;;;;;;;;;27.70;52.56;100951.78;5076808;28;19917;-81
2023/07/06 06:42:00;;;;;;;;;;;;;;;27.69;52.75;100955.38;5084684;28;19927;-80
2023/07/06 06:44:28;;;;;;;;;;;;;;;27.66;52.77;100950.03;5088619;28;19999;-80
2023/07/06 06:46:56;;;;;;;;;;;;;;;27.68;52.65;100953.59;5076262;28;19958;-81
2023/07/06 06:49:22;;;;;;;;;;;;;;;27.68;53.00;100954.47;5072455;28;20407;-81
2023/07/06 06:51:47;;;;;;;;;;;;;;;27.73;52.57;100949.03;5078464;28;19916;-80
2023/07/06 06:54:13;;;;;;;;;;;;;;;27.71;52.67;100954.44;5072716;28;19991;-81
2023/07/06 06:56:40;;;;;;;;;;;;;;;27.71;52.59;100957.13;5072314;28;19962;-81
2023/07/06 06:59:06;;;;;;;;;;;;;;;27.72;52.93;100950.84;5094846;28;19992;-80
2023/07/06 07:01:32;;;;;;;;;;;;;;;27.71;53.05;100948.19;5082531;28;19933;-80
2023/07/06 07:04:00;;;;;;;;;;;;;;;27.71;52.82;100945.53;5072463;28;19992;-80
2023/07/06 07:06:25;;;;;;;;;;;;;;;27.69;52.58;100940.16;5075655;28;19974;-80
2023/07/06 07:08:51;;;;;;;;;;;;;;;27.70;52.60;100941.91;5093530;28;19920;-79
2023/07/06 07:11:19;;;;;;;;;;;;;;;27.69;52.75;100942.84;5080439;28;19965;-80
2023/07/06 07:13:45;;;;;;;;;;;;;;;27.71;52.85;100940.16;5086059;28;20383;-80
2023/07/06 07:16:11;;;;;;;;;;;;;;;27.68;52.80;100934.81;5072230;28;20308;-80
2023/07/06 07:18:38;;;;;;;;;;;;;;;27.69;52.55;100948.22;5071743;28;20369;-81
2023/07/06 07:21:03;;;;;;;;;;;;;;;27.71;53.00;100943.72;5087637;28;19931;-81
2023/07/06 07:23:34;;;;;;;;;;;;;;;27.72;52.70;100948.16;5087262;28;21199;-80
2023/07/06 07:25:59;;;;;;;;;;;;;;;27.72;52.66;100955.31;5078228;28;19915;-81
2023/07/06 07:28:24;;;;;;;;;;;;;;;27.75;52.72;100955.25;5075856;28;19917;-78
2023/07/06 07:30:56;;;;;;;;;;;;;;;27.75;52.81;100949.91;5071853;28;20305;-80
2023/07/06 07:33:22;;;;;;;;;;;;;;;27.73;53.14;100949.94;5087476;28;19966;-79
2023/07/06 07:35:48;;;;;;;;;;;;;;;27.75;53.16;100955.25;5079295;28;19948;-80
2023/07/06 07:38:16;;;;;;;;;;;;;;;27.77;53.14;100950.75;5079463;28;19979;-80
2023/07/06 07:40:52;;;;;;;;;;;;;;;27.78;52.93;100955.25;5078816;28;20388;-80
2023/07/06 07:43:17;;;;;;;;;;;;;;;27.77;52.75;100958.81;5082850;28;19931;-80
2023/07/06 07:45:43;;;;;;;;;;;;;;;27.76;53.19;100952.56;5078525;28;19938;-80
2023/07/06 07:48:09;;;;;;;;;;;;;;;27.76;52.73;100949.00;5075502;28;19925;-80
2023/07/06 07:50:34;;;;;;;;;;;;;;;27.77;52.62;100953.44;5069425;28;20007;-80
2023/07/06 07:53:00;;;;;;;;;;;;;;;27.75;52.93;100952.59;5075315;28;20312;-80
2023/07/06 07:55:25;;;;;;;;;;;;;;;27.75;52.99;100947.22;5071381;28;20376;-81
2023/07/06 07:57:50;;;;;;;;;;;;;;;27.75;53.03;100952.59;5081899;28;19927;-80
2023/07/06 08:00:16;;;;;;;;;;;;;;;27.76;52.62;100955.25;5077287;28;20437;-81
2023/07/06 08:02:41;;;;;;;;;;;;;;;27.78;52.92;100948.06;5070955;28;19920;-80
2023/07/06 08:05:09;;;;;;;;;;;;;;;27.76;53.01;100949.00;5053458;28;20005;-80
2023/07/06 08:07:38;;;;;;;;;;;;;;;27.78;52.71;100949.88;5053338;28;19920;-81
2023/07/06 08:10:04;;;;;;;;;;;;;;;27.80;52.93;100951.63;5088610;28;20024;-81
2023/07/06 08:12:31;;;;;;;;;;;;;;;27.79;52.97;100949.84;5075476;28;19924;-81
2023/07/06 08:14:56;;;;;;;;;;;;;;;27.80;52.63;100942.69;5095341;28;19963;-80
2023/07/06 08:17:22;;;;;;;;;;;;;;;27.80;52.71;100938.19;5067868;28;19990;-80
2023/07/06 08:19:52;;;;;;;;;;;;;;;27.78;53.39;100945.38;5075952;28;20440;-81
2023/07/06 08:22:20;;;;;;;;;;;;;;;27.80;52.89;100943.56;5070221;28;20347;-81
2023/07/06 08:24:46;;;;;;;;;;;;;;;27.82;52.85;100943.56;5060867;28;19952;-80
2023/07/06 08:27:11;;;;;;;;;;;;;;;27.80;52.47;100946.25;5077382;28;19960;-80
2023/07/06 08:29:42;;;;;;;;;;;;;;;27.81;52.51;100947.13;5073599;28;19920;-81
2023/07/06 08:32:08;;;;;;;;;;;;;;;27.81;52.52;100949.81;5075457;28;20381;-80
2023/07/06 08:34:35;;;;;;;;;;;;;;;27.84;52.62;100951.59;5078294;28;19916;-82
2023/07/06 08:37:00;;;;;;;;;;;;;;;27.84;52.92;100948.91;5089283;28;19928;-82
2023/07/06 08:39:26;;;;;;;;;;;;;;;27.86;52.78;100952.50;5072754;28;19924;-80
2023/07/06 08:41:51;;;;;;;;;;;;;;;27.85;52.96;100950.66;5075801;28;19921;-80
2023/07/06 08:44:17;;;;;;;;;;;;;;;27.84;53.05;100946.22;5072149;28;19974;-80
2023/07/06 08:46:48;;;;;;;;;;;;;;;27.86;52.65;100955.19;5096387;28;20384;-80
2023/07/06 08:49:25;;;;;;;;;;;;;;;27.86;52.88;100953.38;5099874;28;19928;-81
2023/07/06 08:51:52;;;;;;;;;;;;;;;27.88;52.82;100953.34;5056482;28;19920;-82
2023/07/06 08:54:19;;;;;;;;;;;;;;;27.85;52.65;100948.88;5067491;28;19916;-82
2023/07/06 08:56:47;;;;;;;;;;;;;;;27.87;53.12;100957.81;5071025;28;19928;-83
2023/07/06 08:59:25;;;;;;;;;;;;;;;27.88;52.44;100956.91;5070074;28;19943;-82
2023/07/06 09:01:52;;;;;;;;;;;;;;;27.91;52.46;100966.72;5070650;28;19916;-82
2023/07/06 09:04:19;;;;;;;;;;;;;;;27.91;52.77;100966.72;5062566;28;19912;-82
2023/07/06 09:06:47;;;;;;;;;;;;;;;27.93;52.80;100964.91;5070475;28;19921;-83
2023/07/06 09:09:13;;;;;;;;;;;;;;;27.91;53.21;100972.97;5095424;28;20001;-81
2023/07/06 09:11:42;;;;;;;;;;;;;;;27.91;53.05;100967.59;5079931;28;19978;-81
2023/07/06 09:14:13;;;;;;;;;;;;;;;27.92;52.72;100969.38;5102689;27;19944;-81
2023/07/06 09:16:49;;;;;;;;;;;;;;;27.93;53.12;100967.59;5083510;28;19916;-82
2023/07/06 09:19:15;;;;;;;;;;;;;;;27.92;52.93;100969.38;5074170;28;19924;-81
2023/07/06 09:21:44;;;;;;;;;;;;;;;27.94;52.71;100970.25;5066817;28;20023;-81
2023/07/06 09:24:11;;;;;;;;;;;;;;;27.95;52.85;100971.13;5083518;28;21266;-82
2023/07/06 09:26:38;;;;;;;;;;;;;;;27.96;52.90;100976.50;5081573;28;19939;-82
2023/07/06 09:29:18;;;;;;;;;;;;;;;27.96;52.60;100970.22;5086690;28;19928;-82
2023/07/06 09:31:48;;;;;;;;;;;;;;;27.96;52.59;100971.13;5084010;28;19916;-81
2023/07/06 09:34:27;;;;;;;;;;;;;;;27.94;52.68;100972.94;5064438;28;20460;-82
2023/07/06 09:36:56;;;;;;;;;;;;;;;27.97;52.77;100972.00;5058538;28;20536;-82
2023/07/06 09:39:22;;;;;;;;;;;;;;;27.97;52.69;100963.94;5068950;28;19927;-83
2023/07/06 09:41:48;;;;;;;;;;;;;;;28.00;52.58;100963.88;5085263;28;19924;-86
2023/07/06 09:44:20;;;;;;;;;;;;;;;27.88;52.12;100966.78;5093508;28;19916;-82
2023/07/06 09:46:46;;;;;;;;;;;;;;;27.94;52.48;100958.59;5091247;28;19920;-82
2023/07/06 09:49:19;;;;;;;;;;;;;;;27.95;52.53;100966.66;5084694;28;20478;-82
2023/07/06 09:51:50;;;;;;;;;;;;;;;27.99;52.70;100963.00;5079966;28;20603;-82
2023/07/06 09:54:19;;;;;;;;;;;;;;;28.00;52.53;100963.88;5074644;28;19916;-81
2023/07/06 09:56:45;;;;;;;;;;;;;;;28.01;52.33;100971.94;5071356;28;19935;-82
2023/07/06 09:59:11;;;;;;;;;;;;;;;28.04;52.51;100971.00;5097794;28;20305;-82
2023/07/06 10:01:39;;;;;;;;;;;;;;;28.02;52.17;100962.97;5048209;28;19921;-80
2023/07/06 10:04:08;;;;;;;;;;;;;;;28.02;52.24;100962.97;5056849;28;20390;-82
2023/07/06 10:06:34;;;;;;;;;;;;;;;28.03;52.46;100958.50;5056212;28;19924;-82
2023/07/06 10:09:15;;;;;;;;;;;;;;;28.05;52.31;100959.34;5075363;28;19924;-82
2023/07/06 10:11:43;;;;;;;;;;;;;;;28.05;52.17;100956.66;5076021;28;20009;-83
2023/07/06 10:14:09;;;;;;;;;;;;;;;28.04;52.45;100949.50;5078785;28;20511;-82
2023/07/06 10:16:42;;;;;;;;;;;;;;;28.05;52.37;100945.06;5089384;28;20015;-82
2023/07/06 10:19:26;;;;;;;;;;;;;;;28.06;52.41;100947.69;5062380;28;19924;-82
2023/07/06 10:21:58;;;;;;;;;;;;;;;28.08;52.25;100945.00;5082774;28;19943;-82
2023/07/06 10:24:39;;;;;;;;;;;;;;;28.07;52.30;100941.44;5092348;28;19932;-82
2023/07/06 10:27:04;;;;;;;;;;;;;;;28.08;52.39;100940.50;5077564;28;20290;-82
2023/07/06 10:29:37;;;;;;;;;;;;;;;28.09;52.32;100944.06;5066153;28;19928;-84
2023/07/06 10:32:05;;;;;;;;;;;;;;;28.08;52.32;100934.25;5079568;28;20348;-81
2023/07/06 10:34:53;;;;;;;;;;;;;;;28.11;52.46;100934.19;5092071;28;19997;-81
2023/07/06 10:37:19;;;;;;;;;;;;;;;28.10;52.17;100932.44;5078546;28;19924;-81
2023/07/06 10:39:44;;;;;;;;;;;;;;;28.12;52.33;100928.81;5098036;28;19920;-81
2023/07/06 10:42:20;;;;;;;;;;;;;;;28.11;52.24;100931.50;5080419;28;20227;-81
2023/07/06 10:44:49;;;;;;;;;;;;;;;28.12;52.00;100918.06;5080665;28;20160;-81
2023/07/06 10:47:33;;;;;;;;;;;;;;;28.13;51.98;100924.31;5079581;28;19928;-80
2023/07/06 10:50:26;;;;;;;;;;;;;;;28.15;51.97;100920.72;5096792;28;20395;-80
2023/07/06 10:52:55;;;;;;;;;;;;;;;28.14;52.14;100916.25;5078348;28;19920;-83
2023/07/06 10:55:24;;;;;;;;;;;;;;;28.16;51.73;100905.47;5084233;28;19927;-80
2023/07/06 10:57:53;;;;;;;;;;;;;;;28.16;51.85;100906.34;5082613;28;19928;-83
2023/07/06 11:00:19;;;;;;;;;;;;;;;28.15;51.71;100907.28;5085251;28;19985;-82
2023/07/06 11:02:45;;;;;;;;;;;;;;;28.17;51.97;100899.19;5054299;28;20382;-83
2023/07/06 11:05:17;;;;;;;;;;;;;;;28.20;51.92;100899.16;5068176;28;19920;-80
2023/07/06 11:07:46;;;;;;;;;;;;;;;28.19;52.05;100894.69;5054271;28;20321;-80
2023/07/06 11:10:12;;;;;;;;;;;;;;;28.23;51.83;100904.44;5074779;28;19996;-80
2023/07/06 11:13:12;;;;;;;;;;;;;;;28.21;52.24;100898.22;5063894;28;19956;-82
2023/07/06 11:15:46;;;;;;;;;;;;;;;28.23;52.10;100896.41;5043614;28;19917;-81
2023/07/06 11:18:24;;;;;;;;;;;;;;;28.26;51.86;100899.03;5071354;28;19917;-81
2023/07/06 11:20:55;;;;;;;;;;;;;;;28.26;51.90;100892.75;5078504;28;19925;-80
2023/07/06 11:23:37;;;;;;;;;;;;;;;28.26;51.95;100888.31;5086646;28;19940;-80
2023/07/06 11:26:07;;;;;;;;;;;;;;;28.28;52.00;100885.56;5053850;28;19927;-81
2023/07/06 11:28:32;;;;;;;;;;;;;;;28.31;52.04;100888.22;5099020;28;20278;-80
2023/07/06 11:31:08;;;;;;;;;;;;;;;28.31;52.04;100882.84;5093416;27;19923;-79
2023/07/06 11:33:56;;;;;;;;;;;;;;;28.33;52.00;100887.28;5096691;27;19924;-81
2023/07/06 11:36:26;;;;;;;;;;;;;;;28.32;51.91;100885.53;5072054;28;20011;-80
2023/07/06 11:38:55;;;;;;;;;;;;;;;28.36;52.04;100886.31;5076710;28;19927;-80
2023/07/06 11:41:21;;;;;;;;;;;;;;;28.37;52.03;100883.63;5062163;28;19925;-80
2023/07/06 11:44:13;;;;;;;;;;;;;;;28.37;51.92;100875.56;5096443;28;19920;-80
2023/07/06 11:46:57;;;;;;;;;;;;;;;28.40;52.06;100877.31;5058912;28;19927;-80
2023/07/06 11:49:42;;;;;;;;;;;;;;;28.40;51.91;100871.94;5086666;28;19974;-81
2023/07/06 11:52:13;;;;;;;;;;;;;;;28.39;52.17;100872.84;5079034;28;19924;-81
2023/07/06 11:54:51;;;;;;;;;;;;;;;28.40;51.95;100866.56;5072376;28;19927;-80
2023/07/06 11:57:28;;;;;;;;;;;;;;;28.43;52.13;100866.53;5082538;28;19920;-81
2023/07/06 12:00:17;;;;;;;;;;;;;;;28.43;52.10;100869.19;5085118;28;20324;-80
2023/07/06 12:02:48;;;;;;;;;;;;;;;28.45;51.98;100863.78;5080471;28;19987;-80
2023/07/06 12:05:25;;;;;;;;;;;;;;;28.47;52.13;100853.88;5057719;28;19924;-81
2023/07/06 12:07:59;;;;;;;;;;;;;;;28.47;52.11;100854.81;5086323;28;19931;-82
2023/07/06 12:10:24;;;;;;;;;;;;;;;28.45;52.16;100847.66;5093606;28;19959;-80
2023/07/06 12:12:50;;;;;;;;;;;;;;;28.45;52.36;100856.63;5078737;28;19967;-80
2023/07/06 12:15:16;;;;;;;;;;;;;;;28.48;52.49;100847.63;5094738;28;20014;-80
2023/07/06 12:17:43;;;;;;;;;;;;;;;28.48;52.32;100845.81;5082492;28;19974;-82
2023/07/06 12:20:10;;;;;;;;;;;;;;;28.51;52.08;100842.22;5063648;28;20305;-83
2023/07/06 12:22:36;;;;;;;;;;;;;;;28.50;52.17;100840.47;5063840;28;19982;-83
2023/07/06 12:25:01;;;;;;;;;;;;;;;28.52;52.19;100844.88;5104999;28;19982;-84
2023/07/06 12:27:27;;;;;;;;;;;;;;;28.52;52.41;100847.56;5070382;28;19993;-83
2023/07/06 12:30:03;;;;;;;;;;;;;;;28.53;52.25;100838.59;5055155;28;19928;-82
2023/07/06 12:32:29;;;;;;;;;;;;;;;28.55;52.17;100838.56;5076011;28;20360;-81
2023/07/06 12:34:55;;;;;;;;;;;;;;;28.57;52.36;100839.41;5092920;28;19917;-83
2023/07/06 12:37:24;;;;;;;;;;;;;;;28.56;52.35;100840.34;5077898;28;19981;-84
2023/07/06 12:39:50;;;;;;;;;;;;;;;28.56;52.53;100838.53;5059267;28;19935;-82